createdAt,value
2016-12-28T00:00:28.963Z,51.90
2016-12-28T00:01:24.051Z,52.00
2016-12-28T00:02:29.107Z,51.90
2016-12-28T00:03:26.810Z,52.00
2016-12-28T00:04:35.306Z,52.00
2016-12-28T00:05:28.542Z,51.90
2016-12-28T00:06:33.693Z,52.00
2016-12-28T00:07:35.353Z,52.00
2016-12-28T00:08:29.789Z,51.90
2016-12-28T00:09:35.422Z,52.00
2016-12-28T00:10:28.220Z,52.00
2016-12-28T00:11:29.371Z,52.00
2016-12-28T00:12:28.338Z,51.90
2016-12-28T00:13:29.285Z,51.90
2016-12-28T00:14:28.938Z,52.00
2016-12-28T00:15:29.458Z,51.90
2016-12-28T00:16:29.237Z,51.90
2016-12-28T00:17:40.255Z,52.00
2016-12-28T00:18:34.449Z,52.30
2016-12-28T00:19:29.763Z,52.00
2016-12-28T00:20:36.873Z,52.00
2016-12-28T00:21:34.765Z,52.00
2016-12-28T00:22:27.761Z,52.00
2016-12-28T00:23:38.989Z,52.10
2016-12-28T00:24:28.544Z,52.00
2016-12-28T00:25:28.186Z,52.00
2016-12-28T00:26:32.371Z,52.10
2016-12-28T00:27:34.009Z,52.00
2016-12-28T00:28:33.557Z,52.10
2016-12-28T00:29:29.095Z,52.00
2016-12-28T00:30:29.079Z,52.10
2016-12-28T00:31:26.762Z,52.10
2016-12-28T00:32:29.101Z,52.00
2016-12-28T00:33:21.924Z,52.00
2016-12-28T00:34:28.803Z,52.10
2016-12-28T00:35:33.420Z,52.10
2016-12-28T00:36:30.556Z,52.10
2016-12-28T00:37:29.468Z,52.00
2016-12-28T00:38:39.811Z,52.10
2016-12-28T00:39:31.512Z,52.10
2016-12-28T00:40:39.809Z,52.20
2016-12-28T00:41:27.808Z,is
2016-12-28T00:42:30.414Z,52.10
2016-12-28T00:43:34.700Z,52.20
2016-12-28T00:44:23.720Z,52.50
2016-12-28T00:45:34.127Z,52.10
2016-12-28T00:46:28.776Z,52.30
2016-12-28T00:47:29.415Z,52.30
2016-12-28T00:48:30.081Z,52.30
2016-12-28T00:49:39.560Z,52.20
2016-12-28T00:50:29.484Z,52.40
2016-12-28T00:51:27.860Z,is
2016-12-28T00:52:21.873Z,is
2016-12-28T00:53:22.095Z,52.30
2016-12-28T00:54:28.349Z,52.30
2016-12-28T00:55:30.794Z,52.50
2016-12-28T00:56:28.835Z,52.30
2016-12-28T00:57:25.317Z,52.50
2016-12-28T00:58:31.210Z,is
2016-12-28T00:59:29.553Z,52.40
2016-12-28T01:00:26.763Z,52.30
2016-12-28T01:01:27.930Z,52.50
2016-12-28T01:02:29.557Z,52.40
2016-12-28T01:03:35.268Z,52.50
2016-12-28T01:04:36.610Z,52.40
2016-12-28T01:05:28.573Z,52.50
2016-12-28T01:06:27.963Z,52.30
2016-12-28T01:07:28.364Z,52.50
2016-12-28T01:08:23.215Z,52.30
2016-12-28T01:09:27.976Z,52.30
2016-12-28T01:10:37.653Z,52.40
2016-12-28T01:11:32.720Z,52.30
2016-12-28T01:12:34.157Z,52.30
2016-12-28T01:13:31.934Z,52.50
2016-12-28T01:14:36.561Z,52.40
2016-12-28T01:15:36.657Z,52.40
2016-12-28T01:16:23.198Z,52.40
2016-12-28T01:17:30.973Z,52.30
2016-12-28T01:18:39.311Z,52.40
2016-12-28T01:19:29.344Z,52.40
2016-12-28T01:20:33.294Z,52.50
2016-12-28T01:21:30.561Z,is
2016-12-28T01:22:27.377Z,is
2016-12-28T01:23:31.006Z,52.30
2016-12-28T01:24:29.245Z,52.30
2016-12-28T01:25:35.595Z,is
2016-12-28T01:26:34.604Z,52.30
2016-12-28T01:27:33.078Z,52.40
2016-12-28T01:28:27.367Z,52.40
2016-12-28T01:29:28.402Z,52.40
2016-12-28T01:30:23.611Z,52.50
2016-12-28T01:31:28.589Z,52.30
2016-12-28T01:32:32.827Z,52.40
2016-12-28T01:33:27.901Z,52.30
2016-12-28T01:34:34.583Z,52.50
2016-12-28T01:35:28.995Z,52.40
2016-12-28T01:36:32.389Z,52.50
2016-12-28T01:37:23.497Z,is
2016-12-28T01:38:29.862Z,52.30
2016-12-28T01:39:28.825Z,52.30
2016-12-28T01:40:28.169Z,52.30
2016-12-28T01:41:23.740Z,52.30
2016-12-28T01:42:35.070Z,52.40
2016-12-28T01:43:27.564Z,52.50
2016-12-28T01:44:34.091Z,52.50
2016-12-28T01:45:28.491Z,52.30
2016-12-28T01:46:28.674Z,52.30
2016-12-28T01:47:28.436Z,52.40
2016-12-28T01:48:30.575Z,52.50
2016-12-28T01:49:38.605Z,52.30
2016-12-28T01:50:23.116Z,52.40
2016-12-28T01:51:28.954Z,52.40
2016-12-28T01:52:28.235Z,52.50
2016-12-28T01:53:33.549Z,52.50
2016-12-28T01:54:31.195Z,53.00
2016-12-28T01:55:32.650Z,52.60
2016-12-28T01:56:31.144Z,52.40
2016-12-28T01:57:31.629Z,52.50
2016-12-28T01:58:33.821Z,52.40
2016-12-28T01:59:21.091Z,52.40
2016-12-28T02:00:30.017Z,52.40
2016-12-28T02:01:29.177Z,52.50
2016-12-28T02:02:28.699Z,52.40
2016-12-28T02:03:28.150Z,52.50
2016-12-28T02:04:32.934Z,is
2016-12-28T02:05:28.277Z,52.60
2016-12-28T02:06:32.567Z,is
2016-12-28T02:07:28.454Z,52.50
2016-12-28T02:08:30.387Z,52.50
2016-12-28T02:09:28.961Z,52.50
2016-12-28T02:10:28.487Z,52.50
2016-12-28T02:11:28.866Z,52.50
2016-12-28T02:12:29.900Z,52.60
2016-12-28T02:13:29.808Z,52.50
2016-12-28T02:14:28.126Z,52.50
2016-12-28T02:16:30.453Z,52.50
2016-12-28T02:17:34.185Z,52.70
2016-12-28T02:18:29.501Z,52.50
2016-12-28T02:19:28.707Z,52.60
2016-12-28T02:20:28.146Z,52.50
2016-12-28T02:21:30.970Z,52.50
2016-12-28T02:22:25.838Z,52.60
2016-12-28T02:23:31.206Z,52.50
2016-12-28T02:24:28.862Z,52.60
2016-12-28T02:25:29.875Z,52.50
2016-12-28T02:26:32.518Z,52.50
2016-12-28T02:27:29.581Z,52.50
2016-12-28T02:28:27.716Z,52.50
2016-12-28T02:29:25.450Z,52.60
2016-12-28T02:30:29.926Z,52.70
2016-12-28T02:31:29.582Z,52.60
2016-12-28T02:32:28.503Z,52.50
2016-12-28T02:33:29.821Z,52.70
2016-12-28T02:34:28.149Z,52.60
2016-12-28T02:35:26.108Z,52.70
2016-12-28T02:36:28.828Z,52.60
2016-12-28T02:37:29.083Z,52.60
2016-12-28T02:38:29.325Z,52.60
2016-12-28T02:39:27.554Z,52.70
2016-12-28T02:40:28.520Z,52.70
2016-12-28T02:41:31.475Z,52.60
2016-12-28T02:42:37.215Z,is
2016-12-28T02:43:29.483Z,52.70
2016-12-28T02:44:33.483Z,52.60
2016-12-28T02:45:28.713Z,is
2016-12-28T02:46:28.816Z,52.60
2016-12-28T02:47:27.771Z,52.70
2016-12-28T02:48:28.266Z,52.70
2016-12-28T02:49:29.279Z,52.90
2016-12-28T02:50:32.262Z,52.70
2016-12-28T02:51:28.601Z,52.80
2016-12-28T02:52:28.671Z,52.80
2016-12-28T02:53:33.895Z,52.90
2016-12-28T02:54:27.810Z,52.90
2016-12-28T02:55:33.541Z,53.00
2016-12-28T02:56:39.891Z,52.80
2016-12-28T02:57:29.352Z,52.80
2016-12-28T02:58:27.071Z,52.80
2016-12-28T02:59:38.108Z,52.80
2016-12-28T03:00:35.286Z,53.10
2016-12-28T03:01:30.803Z,53.00
2016-12-28T03:02:41.024Z,53.10
2016-12-28T03:03:31.285Z,53.10
2016-12-28T03:04:28.662Z,52.60
2016-12-28T03:05:31.653Z,53.00
2016-12-28T03:06:30.537Z,53.20
2016-12-28T03:07:34.277Z,53.20
2016-12-28T03:08:29.844Z,53.00
2016-12-28T03:09:29.673Z,53.20
2016-12-28T03:10:31.856Z,53.10
2016-12-28T03:11:34.706Z,53.00
2016-12-28T03:12:27.793Z,53.00
2016-12-28T03:13:34.760Z,53.00
2016-12-28T03:14:31.936Z,53.00
2016-12-28T03:15:29.314Z,53.00
2016-12-28T03:16:33.282Z,53.00
2016-12-28T03:17:28.420Z,53.20
2016-12-28T03:18:40.125Z,53.10
2016-12-28T03:19:27.745Z,53.00
2016-12-28T03:20:29.859Z,53.10
2016-12-28T03:21:33.239Z,53.20
2016-12-28T03:22:33.938Z,53.30
2016-12-28T03:23:25.533Z,53.00
2016-12-28T03:24:36.338Z,53.30
2016-12-28T03:25:28.341Z,53.10
2016-12-28T03:26:27.916Z,53.10
2016-12-28T03:27:30.392Z,53.10
2016-12-28T03:28:30.355Z,53.10
2016-12-28T03:29:36.611Z,53.10
2016-12-28T03:30:29.014Z,53.10
2016-12-28T03:31:29.607Z,53.20
2016-12-28T03:32:32.739Z,53.30
2016-12-28T03:33:33.317Z,53.30
2016-12-28T03:34:28.549Z,53.10
2016-12-28T03:35:33.024Z,53.20
2016-12-28T03:36:26.374Z,53.10
2016-12-28T03:37:28.791Z,53.30
2016-12-28T03:38:28.567Z,53.30
2016-12-28T03:39:28.109Z,53.20
2016-12-28T03:40:28.640Z,53.10
2016-12-28T03:41:30.944Z,53.30
2016-12-28T03:42:29.095Z,53.20
2016-12-28T03:43:29.114Z,53.10
2016-12-28T03:44:28.354Z,53.10
2016-12-28T03:45:50.355Z,53.00
2016-12-28T03:46:27.711Z,53.30
2016-12-28T03:47:29.029Z,53.20
2016-12-28T03:48:28.856Z,53.30
2016-12-28T03:49:29.326Z,53.40
2016-12-28T03:50:30.212Z,53.40
2016-12-28T03:51:32.816Z,53.10
2016-12-28T03:52:28.364Z,53.20
2016-12-28T03:53:29.873Z,53.10
2016-12-28T03:54:32.125Z,53.30
2016-12-28T03:55:34.377Z,53.40
2016-12-28T03:56:31.056Z,53.30
2016-12-28T03:57:34.695Z,53.20
2016-12-28T03:58:29.803Z,53.20
2016-12-28T03:59:27.655Z,53.20
2016-12-28T04:00:30.015Z,53.30
2016-12-28T04:01:29.481Z,53.20
2016-12-28T04:02:27.901Z,53.20
2016-12-28T04:03:26.924Z,53.20
2016-12-28T04:04:28.346Z,53.20
2016-12-28T04:05:33.493Z,53.30
2016-12-28T04:06:33.283Z,53.20
2016-12-28T04:07:30.139Z,53.30
2016-12-28T04:08:29.478Z,53.30
2016-12-28T04:09:29.493Z,is
2016-12-28T04:10:28.694Z,53.20
2016-12-28T04:11:29.421Z,53.30
2016-12-28T04:12:37.249Z,53.40
2016-12-28T04:13:30.421Z,53.20
2016-12-28T04:14:35.555Z,53.30
2016-12-28T04:15:29.191Z,53.20
2016-12-28T04:16:29.545Z,53.30
2016-12-28T04:17:28.046Z,is
2016-12-28T04:18:28.503Z,53.20
2016-12-28T04:19:24.539Z,53.40
2016-12-28T04:20:28.531Z,53.10
2016-12-28T04:21:38.674Z,53.30
2016-12-28T04:22:27.830Z,53.20
2016-12-28T04:23:33.818Z,53.20
2016-12-28T04:24:29.730Z,53.20
2016-12-28T04:25:26.848Z,53.10
2016-12-28T04:26:28.674Z,53.20
2016-12-28T04:27:40.372Z,53.30
2016-12-28T04:28:34.270Z,53.10
2016-12-28T04:29:36.171Z,53.30
2016-12-28T04:30:29.520Z,53.20
2016-12-28T04:31:28.521Z,53.30
2016-12-28T04:32:25.511Z,53.20
2016-12-28T04:33:28.177Z,53.20
2016-12-28T04:34:30.328Z,53.30
2016-12-28T04:35:30.008Z,53.40
2016-12-28T04:36:34.409Z,is
2016-12-28T04:37:29.646Z,53.20
2016-12-28T04:38:29.511Z,53.30
2016-12-28T04:39:35.376Z,53.30
2016-12-28T04:40:28.107Z,53.30
2016-12-28T04:41:25.589Z,53.20
2016-12-28T04:42:47.314Z,53.40
2016-12-28T04:43:32.930Z,53.20
2016-12-28T04:44:29.909Z,53.30
2016-12-28T04:45:30.958Z,53.40
2016-12-28T04:46:31.724Z,53.30
2016-12-28T04:47:30.025Z,52.50
2016-12-28T04:48:29.633Z,53.20
2016-12-28T04:49:27.635Z,53.30
2016-12-28T04:50:29.630Z,53.30
2016-12-28T04:51:35.780Z,53.30
2016-12-28T04:52:34.042Z,53.30
2016-12-28T04:53:28.346Z,53.30
2016-12-28T04:54:23.297Z,53.30
2016-12-28T04:55:30.380Z,53.20
2016-12-28T04:56:28.569Z,53.90
2016-12-28T04:57:28.029Z,53.30
2016-12-28T04:58:19.539Z,53.30
2016-12-28T04:59:27.938Z,53.30
2016-12-28T05:00:31.735Z,53.30
2016-12-28T05:01:20.817Z,53.40
2016-12-28T05:02:28.289Z,53.40
2016-12-28T05:03:44.248Z,53.40
2016-12-28T05:04:26.158Z,53.50
2016-12-28T05:05:28.327Z,53.40
2016-12-28T05:06:23.531Z,53.30
2016-12-28T05:07:27.928Z,53.30
2016-12-28T05:08:35.098Z,53.50
2016-12-28T05:09:30.549Z,53.40
2016-12-28T05:10:34.065Z,53.30
2016-12-28T05:11:30.481Z,53.50
2016-12-28T05:12:38.639Z,53.30
2016-12-28T05:13:34.321Z,53.40
2016-12-28T05:14:51.193Z,53.50
2016-12-28T05:15:26.999Z,53.30
2016-12-28T05:16:26.430Z,53.30
2016-12-28T05:17:39.956Z,53.50
2016-12-28T05:18:32.529Z,54.00
2016-12-28T05:19:27.659Z,53.40
2016-12-28T05:20:27.950Z,53.40
2016-12-28T05:21:37.461Z,53.40
2016-12-28T05:22:28.431Z,53.50
2016-12-28T05:23:34.077Z,53.40
2016-12-28T05:24:32.496Z,53.50
2016-12-28T05:25:38.253Z,53.50
2016-12-28T05:26:32.193Z,53.30
2016-12-28T05:27:23.148Z,53.50
2016-12-28T05:28:30.098Z,53.50
2016-12-28T05:29:42.253Z,53.50
2016-12-28T05:30:31.494Z,53.60
2016-12-28T05:31:33.986Z,53.50
2016-12-28T05:32:27.600Z,53.40
2016-12-28T05:33:29.226Z,53.50
2016-12-28T05:34:31.453Z,53.50
2016-12-28T05:35:31.335Z,53.50
2016-12-28T05:36:31.139Z,53.40
2016-12-28T05:37:29.713Z,53.50
2016-12-28T05:38:30.724Z,53.50
2016-12-28T05:39:27.860Z,is
2016-12-28T05:40:47.994Z,53.50
2016-12-28T05:41:35.592Z,53.50
2016-12-28T05:42:25.438Z,is
2016-12-28T05:43:30.136Z,53.40
2016-12-28T05:44:30.067Z,53.40
2016-12-28T05:45:33.487Z,53.40
2016-12-28T05:46:33.092Z,53.40
2016-12-28T05:47:37.013Z,53.40
2016-12-28T05:48:28.072Z,53.40
2016-12-28T05:49:26.856Z,53.50
2016-12-28T05:50:28.927Z,53.50
2016-12-28T05:51:39.480Z,53.40
2016-12-28T05:52:27.933Z,53.50
2016-12-28T05:53:40.705Z,53.50
2016-12-28T05:54:23.472Z,53.60
2016-12-28T05:55:35.525Z,53.70
2016-12-28T05:56:33.998Z,53.50
2016-12-28T05:57:34.221Z,53.50
2016-12-28T05:58:34.224Z,53.40
2016-12-28T05:59:34.298Z,53.50
2016-12-28T06:00:29.728Z,is
2016-12-28T06:01:28.905Z,53.50
2016-12-28T06:02:28.592Z,53.50
2016-12-28T06:03:34.503Z,53.50
2016-12-28T06:04:31.367Z,53.50
2016-12-28T06:05:29.967Z,53.50
2016-12-28T06:06:53.879Z,53.40
2016-12-28T06:07:31.404Z,53.50
2016-12-28T06:08:32.121Z,53.40
2016-12-28T06:09:23.251Z,53.50
2016-12-28T06:10:28.025Z,53.50
2016-12-28T06:11:28.769Z,53.50
2016-12-28T06:12:27.859Z,53.50
2016-12-28T06:13:33.673Z,53.50
2016-12-28T06:14:36.766Z,53.50
2016-12-28T06:15:29.976Z,53.50
2016-12-28T06:16:32.083Z,53.50
2016-12-28T06:17:32.376Z,53.50
2016-12-28T06:18:39.875Z,53.60
2016-12-28T06:19:23.560Z,53.50
2016-12-28T06:20:32.868Z,53.60
2016-12-28T06:21:32.214Z,53.80
2016-12-28T06:22:28.797Z,53.50
2016-12-28T06:23:30.417Z,53.50
2016-12-28T06:24:28.114Z,53.50
2016-12-28T06:25:28.984Z,53.60
2016-12-28T06:26:29.792Z,53.40
2016-12-28T06:27:29.683Z,53.40
2016-12-28T06:28:27.764Z,53.50
2016-12-28T06:29:27.547Z,53.50
2016-12-28T06:30:23.833Z,53.50
2016-12-28T06:31:28.912Z,53.40
2016-12-28T06:32:28.635Z,53.50
2016-12-28T06:33:28.945Z,53.50
2016-12-28T06:34:29.264Z,53.50
2016-12-28T06:35:33.053Z,53.60
2016-12-28T06:36:31.071Z,53.50
2016-12-28T06:37:28.908Z,is
2016-12-28T06:38:35.302Z,53.50
2016-12-28T06:39:32.807Z,53.60
2016-12-28T06:40:22.685Z,is
2016-12-28T06:41:31.590Z,53.60
2016-12-28T06:42:29.238Z,53.60
2016-12-28T06:43:33.593Z,53.50
2016-12-28T06:45:29.328Z,53.60
2016-12-28T06:46:32.358Z,53.60
2016-12-28T06:47:35.548Z,53.70
2016-12-28T06:48:29.493Z,53.70
2016-12-28T06:49:35.349Z,53.70
2016-12-28T06:50:33.360Z,53.80
2016-12-28T06:51:41.822Z,53.70
2016-12-28T06:52:35.112Z,53.70
2016-12-28T06:53:31.783Z,53.60
2016-12-28T06:54:28.148Z,53.90
2016-12-28T06:55:33.139Z,53.70
2016-12-28T06:56:28.739Z,53.90
2016-12-28T06:57:27.094Z,53.80
2016-12-28T06:58:32.950Z,53.80
2016-12-28T06:59:28.807Z,53.80
2016-12-28T07:00:33.316Z,53.80
2016-12-28T07:01:32.334Z,53.70
2016-12-28T07:02:44.244Z,53.90
2016-12-28T07:03:50.517Z,53.80
2016-12-28T07:04:29.756Z,53.70
2016-12-28T07:05:27.946Z,53.90
2016-12-28T07:06:29.133Z,53.70
2016-12-28T07:07:22.774Z,53.70
2016-12-28T07:08:27.474Z,53.90
2016-12-28T07:09:29.664Z,53.70
2016-12-28T07:10:31.866Z,53.70
2016-12-28T07:11:32.960Z,53.90
2016-12-28T07:12:41.548Z,53.80
2016-12-28T07:13:29.846Z,53.70
2016-12-28T07:14:21.030Z,53.80
2016-12-28T07:15:28.815Z,53.80
2016-12-28T07:16:23.675Z,53.80
2016-12-28T07:17:27.880Z,53.90
2016-12-28T07:18:32.364Z,53.90
2016-12-28T07:19:15.418Z,53.90
2016-12-28T07:20:38.652Z,53.80
2016-12-28T07:21:23.284Z,53.80
2016-12-28T07:22:32.960Z,54.00
2016-12-28T07:23:32.231Z,53.80
2016-12-28T07:24:36.509Z,is
2016-12-28T07:25:35.918Z,53.90
2016-12-28T07:26:32.576Z,53.70
2016-12-28T07:27:22.060Z,53.80
2016-12-28T07:28:29.696Z,53.70
2016-12-28T07:29:27.139Z,53.70
2016-12-28T07:30:29.319Z,53.90
2016-12-28T07:31:30.340Z,53.80
2016-12-28T07:32:30.416Z,53.80
2016-12-28T07:33:33.203Z,53.90
2016-12-28T07:34:40.377Z,53.80
2016-12-28T07:35:34.141Z,53.70
2016-12-28T07:36:47.381Z,53.90
2016-12-28T07:37:35.410Z,53.70
2016-12-28T07:38:23.566Z,53.80
2016-12-28T07:39:28.875Z,53.80
2016-12-28T07:40:33.640Z,53.90
2016-12-28T07:41:28.205Z,53.80
2016-12-28T07:42:29.554Z,53.90
2016-12-28T07:43:28.776Z,53.80
2016-12-28T07:44:40.904Z,53.90
2016-12-28T07:45:32.474Z,53.80
2016-12-28T07:46:43.147Z,53.80
2016-12-28T07:47:22.497Z,53.90
2016-12-28T07:48:28.894Z,53.80
2016-12-28T07:49:28.795Z,53.80
2016-12-28T07:50:29.708Z,53.80
2016-12-28T07:51:29.841Z,53.90
2016-12-28T07:52:23.559Z,53.80
2016-12-28T07:53:29.265Z,53.80
2016-12-28T07:54:28.145Z,53.90
2016-12-28T07:55:32.569Z,54.00
2016-12-28T07:56:28.101Z,54.00
2016-12-28T07:57:27.671Z,53.90
2016-12-28T07:58:28.951Z,53.90
2016-12-28T07:59:35.807Z,54.10
2016-12-28T08:00:28.970Z,53.90
2016-12-28T08:01:26.616Z,is
2016-12-28T08:02:29.510Z,54.00
2016-12-28T08:03:33.159Z,54.00
2016-12-28T08:04:30.248Z,53.90
2016-12-28T08:05:32.962Z,54.00
2016-12-28T08:06:32.392Z,54.10
2016-12-28T08:07:33.711Z,54.10
2016-12-28T08:08:35.346Z,54.00
2016-12-28T08:09:30.927Z,53.90
2016-12-28T08:10:34.791Z,54.00
2016-12-28T08:11:37.571Z,54.00
2016-12-28T08:12:36.958Z,54.00
2016-12-28T08:13:18.019Z,53.90
2016-12-28T08:14:29.313Z,53.90
2016-12-28T08:15:32.714Z,54.00
2016-12-28T08:16:24.178Z,54.10
2016-12-28T08:17:32.984Z,54.00
2016-12-28T08:18:31.051Z,54.00
2016-12-28T08:19:27.844Z,53.90
2016-12-28T08:20:31.371Z,53.90
2016-12-28T08:21:32.517Z,54.00
2016-12-28T08:22:28.158Z,54.00
2016-12-28T08:23:39.366Z,54.00
2016-12-28T08:24:34.015Z,53.90
2016-12-28T08:25:27.365Z,53.90
2016-12-28T08:26:30.436Z,54.00
2016-12-28T08:27:33.248Z,53.90
2016-12-28T08:28:24.367Z,53.90
2016-12-28T08:29:23.027Z,53.90
2016-12-28T08:30:29.069Z,54.20
2016-12-28T08:31:28.809Z,54.00
2016-12-28T08:32:31.501Z,54.00
2016-12-28T08:33:33.244Z,54.00
2016-12-28T08:34:30.267Z,54.10
2016-12-28T08:35:27.214Z,54.10
2016-12-28T08:36:31.751Z,54.00
2016-12-28T08:37:32.946Z,54.20
2016-12-28T08:38:48.029Z,54.20
2016-12-28T08:39:33.307Z,54.10
2016-12-28T08:40:29.183Z,54.10
2016-12-28T08:41:34.750Z,54.10
2016-12-28T08:42:40.356Z,54.10
2016-12-28T08:43:29.727Z,54.10
2016-12-28T08:44:34.039Z,54.20
2016-12-28T08:45:30.402Z,54.30
2016-12-28T08:46:41.562Z,54.10
2016-12-28T08:47:31.065Z,54.10
2016-12-28T08:48:22.780Z,54.20
2016-12-28T08:49:20.756Z,54.10
2016-12-28T08:50:28.999Z,54.30
2016-12-28T08:51:33.237Z,54.10
2016-12-28T08:52:32.526Z,54.10
2016-12-28T08:53:28.592Z,54.30
2016-12-28T08:54:26.556Z,54.70
2016-12-28T08:55:32.110Z,54.30
2016-12-28T08:56:35.881Z,54.20
2016-12-28T08:57:24.452Z,54.00
2016-12-28T08:58:25.530Z,54.10
2016-12-28T08:59:30.026Z,54.00
2016-12-28T09:00:32.621Z,54.00
2016-12-28T09:01:27.894Z,54.10
2016-12-28T09:02:34.099Z,54.10
2016-12-28T09:03:23.241Z,54.10
2016-12-28T09:04:28.868Z,54.10
2016-12-28T09:05:32.946Z,54.10
2016-12-28T09:06:33.849Z,54.10
2016-12-28T09:07:27.919Z,54.10
2016-12-28T09:08:30.863Z,54.10
2016-12-28T09:09:28.243Z,54.00
2016-12-28T09:10:31.141Z,54.10
2016-12-28T09:11:22.415Z,54.20
2016-12-28T09:12:29.564Z,54.00
2016-12-28T09:13:34.706Z,54.10
2016-12-28T09:14:28.083Z,54.10
2016-12-28T09:15:30.556Z,54.10
2016-12-28T09:16:27.719Z,54.30
2016-12-28T09:17:32.273Z,54.00
2016-12-28T09:18:30.175Z,54.00
2016-12-28T09:19:23.451Z,54.30
2016-12-28T09:20:28.554Z,54.10
2016-12-28T09:21:30.004Z,54.20
2016-12-28T09:22:29.428Z,54.10
2016-12-28T09:23:17.742Z,54.20
2016-12-28T09:24:28.482Z,54.10
2016-12-28T09:25:26.704Z,54.00
2016-12-28T09:26:21.183Z,54.20
2016-12-28T09:27:29.853Z,54.30
2016-12-28T09:28:32.631Z,54.20
2016-12-28T09:29:39.025Z,54.30
2016-12-28T09:30:28.806Z,54.40
2016-12-28T09:31:27.803Z,54.50
2016-12-28T09:32:29.291Z,54.30
2016-12-28T09:33:23.912Z,54.30
2016-12-28T09:34:27.727Z,54.40
2016-12-28T09:35:23.366Z,54.40
2016-12-28T09:36:22.969Z,54.40
2016-12-28T09:37:27.995Z,54.40
2016-12-28T09:38:29.236Z,54.50
2016-12-28T09:39:30.175Z,54.30
2016-12-28T09:40:36.468Z,54.30
2016-12-28T09:41:29.289Z,54.30
2016-12-28T09:42:29.359Z,54.60
2016-12-28T09:43:24.621Z,54.50
2016-12-28T09:44:27.927Z,54.30
2016-12-28T09:45:23.881Z,54.50
2016-12-28T09:46:27.831Z,54.50
2016-12-28T09:47:28.081Z,54.30
2016-12-28T09:48:30.894Z,54.40
2016-12-28T09:49:21.075Z,54.40
2016-12-28T09:50:25.259Z,54.40
2016-12-28T09:51:30.930Z,54.40
2016-12-28T09:52:23.501Z,54.40
2016-12-28T09:53:29.056Z,54.20
2016-12-28T09:54:29.381Z,54.40
2016-12-28T09:55:25.931Z,54.30
2016-12-28T09:56:23.635Z,54.40
2016-12-28T09:57:25.770Z,54.50
2016-12-28T09:58:24.660Z,54.50
2016-12-28T09:59:27.997Z,54.50
2016-12-28T10:00:23.447Z,54.30
2016-12-28T10:01:22.995Z,54.20
2016-12-28T10:02:28.993Z,54.60
2016-12-28T10:03:23.527Z,54.30
2016-12-28T10:04:26.439Z,54.50
2016-12-28T10:05:24.298Z,54.60
2016-12-28T10:06:20.460Z,54.50
2016-12-28T10:07:22.486Z,54.40
2016-12-28T10:08:27.466Z,54.50
2016-12-28T10:09:32.054Z,54.50
2016-12-28T10:10:25.106Z,54.50
2016-12-28T10:11:22.856Z,54.50
2016-12-28T10:12:31.656Z,54.50
2016-12-28T10:13:27.326Z,54.60
2016-12-28T10:14:28.743Z,54.60
2016-12-28T10:15:21.352Z,54.30
2016-12-28T10:16:31.360Z,54.20
2016-12-28T10:17:26.706Z,54.30
2016-12-28T10:18:18.771Z,54.40
2016-12-28T10:19:30.752Z,54.30
2016-12-28T10:20:31.320Z,54.30
2016-12-28T10:21:23.645Z,54.20
2016-12-28T10:22:26.140Z,54.50
2016-12-28T10:23:30.457Z,47.00
2016-12-28T10:24:29.826Z,40.30
2016-12-28T10:25:29.014Z,39.80
2016-12-28T10:26:29.636Z,is
2016-12-28T10:27:30.071Z,39.00
2016-12-28T10:28:32.617Z,38.50
2016-12-28T10:29:29.386Z,38.70
2016-12-28T10:30:29.141Z,39.60
2016-12-28T10:31:21.392Z,41.10
2016-12-28T10:32:30.576Z,42.30
2016-12-28T10:33:23.338Z,42.50
2016-12-28T10:34:38.453Z,43.00
2016-12-28T10:35:29.483Z,42.10
2016-12-28T10:36:26.530Z,41.60
2016-12-28T10:37:23.636Z,40.90
2016-12-28T10:38:23.565Z,40.40
2016-12-28T10:39:23.206Z,40.00
2016-12-28T10:40:23.710Z,39.40
2016-12-28T10:41:21.692Z,39.10
2016-12-28T10:42:28.391Z,38.90
2016-12-28T10:43:25.277Z,38.60
2016-12-28T10:44:30.681Z,38.30
2016-12-28T10:45:32.924Z,38.20
2016-12-28T10:46:25.746Z,38.40
2016-12-28T10:47:29.042Z,37.60
2016-12-28T10:48:27.185Z,37.60
2016-12-28T10:49:27.140Z,37.40
2016-12-28T10:50:25.203Z,37.20
2016-12-28T10:51:28.968Z,38.90
2016-12-28T10:52:27.419Z,39.70
2016-12-28T10:53:33.477Z,40.70
2016-12-28T10:54:23.394Z,41.50
2016-12-28T10:55:28.656Z,41.70
2016-12-28T10:56:30.556Z,41.80
2016-12-28T10:57:28.386Z,41.80
2016-12-28T10:58:29.746Z,41.70
2016-12-28T10:59:27.181Z,is
2016-12-28T11:00:24.452Z,42.00
2016-12-28T11:01:28.671Z,42.00
2016-12-28T11:02:35.978Z,42.10
2016-12-28T11:03:23.179Z,42.10
2016-12-28T11:04:26.559Z,42.10
2016-12-28T11:05:26.991Z,42.20
2016-12-28T11:06:28.650Z,is
2016-12-28T11:07:28.168Z,42.20
2016-12-28T11:08:23.145Z,42.20
2016-12-28T11:09:35.314Z,42.20
2016-12-28T11:10:38.257Z,42.20
2016-12-28T11:11:28.910Z,42.20
2016-12-28T11:12:20.735Z,42.20
2016-12-28T11:13:33.938Z,42.20
2016-12-28T11:14:29.555Z,42.20
2016-12-28T11:15:22.927Z,is
2016-12-28T11:16:32.765Z,42.40
2016-12-28T11:17:30.785Z,42.30
2016-12-28T11:18:27.466Z,42.30
2016-12-28T11:19:31.030Z,42.30
2016-12-28T11:20:33.787Z,42.30
2016-12-28T11:21:25.805Z,42.30
2016-12-28T11:22:29.330Z,is
2016-12-28T11:23:20.615Z,42.30
2016-12-28T11:24:28.263Z,42.40
2016-12-28T11:25:28.984Z,42.40
2016-12-28T11:26:18.078Z,42.50
2016-12-28T11:27:38.611Z,42.60
2016-12-28T11:28:29.051Z,43.00
2016-12-28T11:29:39.836Z,42.90
2016-12-28T11:30:35.096Z,42.90
2016-12-28T11:31:39.868Z,43.20
2016-12-28T11:32:28.330Z,43.10
2016-12-28T11:33:31.154Z,43.10
2016-12-28T11:34:35.290Z,43.30
2016-12-28T11:35:33.558Z,43.20
2016-12-28T11:36:27.291Z,43.40
2016-12-28T11:37:37.102Z,43.00
2016-12-28T11:38:27.537Z,43.00
2016-12-28T11:39:34.648Z,43.30
2016-12-28T11:40:29.525Z,43.40
2016-12-28T11:41:35.253Z,43.80
2016-12-28T11:42:44.425Z,43.80
2016-12-28T11:43:37.731Z,44.20
2016-12-28T11:44:35.617Z,44.30
2016-12-28T11:45:28.584Z,44.40
2016-12-28T11:46:28.065Z,44.40
2016-12-28T11:47:40.134Z,44.30
2016-12-28T11:48:27.061Z,44.50
2016-12-28T11:49:26.726Z,44.60
2016-12-28T11:50:41.549Z,44.60
2016-12-28T11:51:32.741Z,44.40
2016-12-28T11:52:28.108Z,44.60
2016-12-28T11:53:23.428Z,44.60
2016-12-28T11:54:32.659Z,44.70
2016-12-28T11:55:27.471Z,is
2016-12-28T11:56:29.287Z,44.70
2016-12-28T11:57:28.354Z,44.70
2016-12-28T11:58:35.475Z,44.80
2016-12-28T11:59:33.734Z,44.90
2016-12-28T12:00:23.235Z,44.90
2016-12-28T12:01:29.920Z,44.90
2016-12-28T12:02:18.437Z,44.90
2016-12-28T12:03:38.053Z,45.10
2016-12-28T12:04:30.290Z,45.20
2016-12-28T12:05:31.284Z,is
2016-12-28T12:06:33.139Z,45.20
2016-12-28T12:07:26.621Z,45.30
2016-12-28T12:08:29.908Z,45.30
2016-12-28T12:09:29.469Z,45.40
2016-12-28T12:10:29.499Z,45.40
2016-12-28T12:11:32.592Z,45.50
2016-12-28T12:12:31.861Z,45.50
2016-12-28T12:13:32.463Z,45.70
2016-12-28T12:14:29.851Z,45.70
2016-12-28T12:15:32.166Z,45.70
2016-12-28T12:16:34.176Z,45.70
2016-12-28T12:17:30.449Z,45.90
2016-12-28T12:18:28.985Z,45.90
2016-12-28T12:19:28.310Z,46.10
2016-12-28T12:20:28.028Z,46.00
2016-12-28T12:21:28.471Z,46.00
2016-12-28T12:22:34.064Z,45.90
2016-12-28T12:23:31.623Z,46.30
2016-12-28T12:24:28.184Z,46.20
2016-12-28T12:25:37.217Z,46.20
2016-12-28T12:26:33.269Z,46.40
2016-12-28T12:27:28.174Z,46.50
2016-12-28T12:28:30.202Z,46.50
2016-12-28T12:29:28.911Z,46.40
2016-12-28T12:30:28.013Z,46.40
2016-12-28T12:31:28.742Z,46.50
2016-12-28T12:32:28.537Z,46.60
2016-12-28T12:33:33.589Z,46.60
2016-12-28T12:34:33.476Z,46.70
2016-12-28T12:35:35.455Z,47.00
2016-12-28T12:36:31.358Z,46.90
2016-12-28T12:37:31.427Z,46.90
2016-12-28T12:38:43.191Z,46.80
2016-12-28T12:39:31.441Z,46.80
2016-12-28T12:40:31.951Z,46.90
2016-12-28T12:41:28.629Z,47.00
2016-12-28T12:42:32.981Z,47.00
2016-12-28T12:43:27.238Z,47.00
2016-12-28T12:44:32.182Z,47.00
2016-12-28T12:45:31.095Z,47.30
2016-12-28T12:46:24.800Z,47.10
2016-12-28T12:47:29.839Z,47.20
2016-12-28T12:48:29.327Z,47.10
2016-12-28T12:49:31.542Z,47.10
2016-12-28T12:50:21.807Z,47.20
2016-12-28T12:51:33.398Z,47.10
2016-12-28T12:52:26.770Z,47.30
2016-12-28T12:53:26.860Z,47.30
2016-12-28T12:54:27.912Z,47.20
2016-12-28T12:55:29.959Z,47.30
2016-12-28T12:56:38.973Z,47.30
2016-12-28T12:57:30.757Z,47.30